createdAt,value
2022-07-26T00:00:12.946Z,24.10
2022-07-26T00:02:47.238Z,24.10
2022-07-26T00:05:18.788Z,24.10
2022-07-26T00:07:45.957Z,24.00
2022-07-26T00:10:13.497Z,24.00
2022-07-26T00:12:40.486Z,24.00
2022-07-26T00:15:10.231Z,23.90
2022-07-26T00:17:37.079Z,23.90
2022-07-26T00:20:04.844Z,23.80
2022-07-26T00:22:34.546Z,23.70
2022-07-26T00:25:04.732Z,23.70
2022-07-26T00:27:32.797Z,23.60
2022-07-26T00:29:59.777Z,23.60
2022-07-26T00:32:26.528Z,23.50
2022-07-26T00:34:53.466Z,23.50
2022-07-26T00:37:21.009Z,23.50
2022-07-26T00:39:48.574Z,23.40
2022-07-26T00:42:15.538Z,23.40
2022-07-26T00:44:45.166Z,23.40
2022-07-26T00:47:12.286Z,23.40
2022-07-26T00:49:39.006Z,23.40
2022-07-26T00:52:06.938Z,23.30
2022-07-26T00:54:34.108Z,23.30
2022-07-26T00:57:01.059Z,23.30
2022-07-26T00:59:28.163Z,23.30
2022-07-26T01:01:55.242Z,23.30
2022-07-26T01:04:22.294Z,23.20
2022-07-26T01:06:49.770Z,23.20
2022-07-26T01:09:17.028Z,23.20
2022-07-26T01:11:43.736Z,23.20
2022-07-26T01:14:10.931Z,23.10
2022-07-26T01:16:38.058Z,23.10
2022-07-26T01:19:04.949Z,23.10
2022-07-26T01:21:33.280Z,23.10
2022-07-26T01:24:00.029Z,23.00
2022-07-26T01:26:26.779Z,23.00
2022-07-26T01:28:53.659Z,23.00
2022-07-26T01:31:20.662Z,23.00
2022-07-26T01:33:47.933Z,22.90
2022-07-26T01:36:14.803Z,22.80
2022-07-26T01:38:42.221Z,22.80
2022-07-26T01:41:09.623Z,22.80
2022-07-26T01:43:37.532Z,22.80
2022-07-26T01:46:06.384Z,22.80
2022-07-26T01:48:33.694Z,22.80
2022-07-26T01:51:01.092Z,22.80
2022-07-26T01:53:27.814Z,22.80
2022-07-26T01:55:55.015Z,22.80
2022-07-26T01:58:21.945Z,22.90
2022-07-26T02:00:49.395Z,22.90
2022-07-26T02:03:16.246Z,22.90
2022-07-26T02:05:43.133Z,22.90
2022-07-26T02:08:11.152Z,23.00
2022-07-26T02:10:57.010Z,23.00
2022-07-26T02:13:23.833Z,23.00
2022-07-26T02:15:50.635Z,23.00
2022-07-26T02:18:17.681Z,23.00
2022-07-26T02:20:44.532Z,23.00
2022-07-26T02:23:11.533Z,23.00
2022-07-26T02:25:38.237Z,23.00
2022-07-26T02:28:05.255Z,23.00
2022-07-26T02:30:31.925Z,23.10
2022-07-26T02:32:58.667Z,23.10
2022-07-26T02:35:25.397Z,23.10
2022-07-26T02:37:52.088Z,23.10
2022-07-26T02:40:19.640Z,23.10
2022-07-26T02:42:46.505Z,23.00
2022-07-26T02:45:13.263Z,23.00
2022-07-26T02:47:53.014Z,23.00
2022-07-26T02:50:21.100Z,23.00
2022-07-26T02:52:48.557Z,23.00
2022-07-26T02:55:20.634Z,22.90
2022-07-26T02:57:48.312Z,22.90
2022-07-26T03:00:17.991Z,22.90
2022-07-26T03:02:44.882Z,22.90
2022-07-26T03:05:11.654Z,22.80
2022-07-26T03:07:38.428Z,22.80
2022-07-26T03:10:05.672Z,22.80
2022-07-26T03:12:32.358Z,22.70
2022-07-26T03:14:59.190Z,22.70
2022-07-26T03:17:26.033Z,22.70
2022-07-26T03:19:52.806Z,22.60
2022-07-26T03:22:19.517Z,22.60
2022-07-26T03:24:46.187Z,22.50
2022-07-26T03:27:12.947Z,22.50
2022-07-26T03:29:39.674Z,22.40
2022-07-26T03:32:06.803Z,22.40
2022-07-26T03:34:33.664Z,22.30
2022-07-26T03:37:00.402Z,22.30
2022-07-26T03:39:27.143Z,22.20
2022-07-26T03:41:53.913Z,22.20
2022-07-26T03:44:20.625Z,22.20
2022-07-26T03:46:47.316Z,22.10
2022-07-26T03:49:16.979Z,22.10
2022-07-26T03:51:44.617Z,22.10
2022-07-26T03:54:11.778Z,22.00
2022-07-26T03:56:40.306Z,22.00
2022-07-26T03:59:09.389Z,21.90
2022-07-26T04:01:41.640Z,21.90
2022-07-26T04:04:10.577Z,21.80
2022-07-26T04:06:39.191Z,21.80
2022-07-26T04:09:07.236Z,21.70
2022-07-26T04:11:34.774Z,21.60
2022-07-26T04:14:02.175Z,21.60
2022-07-26T04:16:29.239Z,21.50
2022-07-26T04:18:55.988Z,21.50
2022-07-26T04:21:22.802Z,21.50
2022-07-26T04:23:51.512Z,21.50
2022-07-26T04:26:20.271Z,21.40
2022-07-26T04:28:47.434Z,21.40
2022-07-26T04:31:14.301Z,21.40
2022-07-26T04:33:41.099Z,21.40
2022-07-26T04:36:08.320Z,21.40
2022-07-26T04:38:35.063Z,21.30
2022-07-26T04:41:01.803Z,21.30
2022-07-26T04:43:28.555Z,21.40
2022-07-26T04:45:57.428Z,21.40
2022-07-26T04:48:24.539Z,21.40
2022-07-26T04:50:51.283Z,21.50
2022-07-26T04:53:17.993Z,21.60
2022-07-26T04:55:45.017Z,21.60
2022-07-26T04:58:11.767Z,21.70
2022-07-26T05:01:02.769Z,21.70
2022-07-26T05:03:25.410Z,21.80
2022-07-26T05:05:52.761Z,21.80
2022-07-26T05:08:19.690Z,21.80
2022-07-26T05:10:47.784Z,21.80
2022-07-26T05:13:16.207Z,21.80
2022-07-26T05:15:49.917Z,21.80
2022-07-26T05:18:20.864Z,21.80
2022-07-26T05:20:51.513Z,21.80
2022-07-26T05:23:19.902Z,21.80
2022-07-26T05:25:47.380Z,21.90
2022-07-26T05:28:14.227Z,21.90
2022-07-26T05:30:40.985Z,22.00
2022-07-26T05:33:07.956Z,22.00
2022-07-26T05:35:34.752Z,22.10
2022-07-26T05:38:01.574Z,22.10
2022-07-26T05:40:28.372Z,22.20
2022-07-26T05:42:54.996Z,22.20
2022-07-26T05:45:21.814Z,22.30
2022-07-26T05:47:52.433Z,22.40
2022-07-26T05:50:19.991Z,22.50
2022-07-26T05:52:46.775Z,22.60
2022-07-26T05:55:13.977Z,22.70
2022-07-26T05:57:41.982Z,22.70
2022-07-26T06:00:11.435Z,22.70
2022-07-26T06:02:38.214Z,22.60
2022-07-26T06:05:05.219Z,22.50
2022-07-26T06:07:32.173Z,22.50
2022-07-26T06:09:59.982Z,22.50
2022-07-26T06:12:26.691Z,22.50
2022-07-26T06:14:53.406Z,22.50
2022-07-26T06:17:20.230Z,22.60
2022-07-26T06:19:47.899Z,22.50
2022-07-26T06:22:15.166Z,22.50
2022-07-26T06:24:41.921Z,22.50
2022-07-26T06:27:08.670Z,22.50
2022-07-26T06:29:35.451Z,22.50
2022-07-26T06:32:02.322Z,22.40
2022-07-26T06:34:29.707Z,22.30
2022-07-26T06:36:56.511Z,22.30
2022-07-26T06:39:23.423Z,22.20
2022-07-26T06:41:50.433Z,22.30
2022-07-26T06:44:17.251Z,22.20
2022-07-26T06:46:43.972Z,22.20
2022-07-26T06:49:10.760Z,22.20
2022-07-26T06:51:38.062Z,22.30
2022-07-26T06:54:05.756Z,22.40
2022-07-26T06:56:32.965Z,22.40
2022-07-26T06:58:59.760Z,22.40
2022-07-26T07:01:57.745Z,22.40
2022-07-26T07:04:13.173Z,22.50
2022-07-26T07:06:40.376Z,22.50
2022-07-26T07:09:08.912Z,22.50
2022-07-26T07:11:36.380Z,22.50
2022-07-26T07:14:03.477Z,22.60
2022-07-26T07:16:30.488Z,22.70
2022-07-26T07:18:57.428Z,22.80
2022-07-26T07:21:24.387Z,23.00
2022-07-26T07:23:51.174Z,23.20
2022-07-26T07:26:20.120Z,23.30
2022-07-26T07:28:46.978Z,23.50
2022-07-26T07:31:15.465Z,23.70
2022-07-26T07:33:52.600Z,23.90
2022-07-26T07:36:19.970Z,24.10
2022-07-26T07:38:47.073Z,24.20
2022-07-26T07:41:13.878Z,24.30
2022-07-26T07:43:40.843Z,24.40
2022-07-26T07:46:07.609Z,24.50
2022-07-26T07:48:34.380Z,24.60
2022-07-26T07:51:01.317Z,24.70
2022-07-26T07:53:28.568Z,24.70
2022-07-26T07:55:57.679Z,24.80
2022-07-26T07:58:24.511Z,24.90
2022-07-26T08:00:55.349Z,24.90
2022-07-26T08:03:22.612Z,25.10
2022-07-26T08:05:50.803Z,25.10
2022-07-26T08:08:22.169Z,25.20
2022-07-26T08:10:52.181Z,25.10
2022-07-26T08:13:21.537Z,25.20
2022-07-26T08:15:52.792Z,25.30
2022-07-26T08:18:22.572Z,25.50
2022-07-26T08:20:51.420Z,25.60
2022-07-26T08:23:19.052Z,25.60
2022-07-26T08:25:56.275Z,25.60
2022-07-26T08:28:46.229Z,25.60
2022-07-26T08:31:11.909Z,25.80
2022-07-26T08:33:40.869Z,26.00
2022-07-26T08:36:12.384Z,26.20
2022-07-26T08:38:39.412Z,26.40
2022-07-26T08:41:06.359Z,26.40
2022-07-26T08:43:33.123Z,26.50
2022-07-26T08:46:24.710Z,26.50
2022-07-26T08:48:53.398Z,26.50
2022-07-26T08:51:22.579Z,26.50
2022-07-26T08:53:50.597Z,26.50
2022-07-26T08:56:17.341Z,26.50
2022-07-26T08:58:45.331Z,26.50
2022-07-26T09:01:13.137Z,26.60
2022-07-26T09:03:41.677Z,26.70
2022-07-26T09:06:13.475Z,26.80
2022-07-26T09:08:40.661Z,26.90
2022-07-26T09:11:28.239Z,26.80
2022-07-26T09:13:56.827Z,26.80
2022-07-26T09:16:24.121Z,26.90
2022-07-26T09:18:51.068Z,27.00
2022-07-26T09:21:32.435Z,27.00
2022-07-26T09:23:59.842Z,27.00
2022-07-26T09:26:28.014Z,27.00
2022-07-26T09:29:10.524Z,27.00
2022-07-26T09:31:39.222Z,27.20
2022-07-26T09:34:07.399Z,27.40
2022-07-26T09:36:51.563Z,27.60
2022-07-26T09:39:33.991Z,27.70
2022-07-26T09:42:27.591Z,27.70
2022-07-26T09:44:58.887Z,27.60
2022-07-26T09:47:39.691Z,27.50
2022-07-26T09:50:17.317Z,27.60
2022-07-26T09:53:07.272Z,27.70
2022-07-26T09:55:55.283Z,27.90
2022-07-26T09:58:23.164Z,28.00
2022-07-26T10:00:50.161Z,28.00
2022-07-26T10:03:17.195Z,28.00
2022-07-26T10:05:43.976Z,27.90
2022-07-26T10:08:12.122Z,27.70
2022-07-26T10:10:45.011Z,27.50
2022-07-26T10:13:11.996Z,27.30
2022-07-26T10:15:46.899Z,27.10
2022-07-26T10:18:35.974Z,27.00
2022-07-26T10:21:23.668Z,27.00
2022-07-26T10:23:51.754Z,27.00
2022-07-26T10:26:36.373Z,27.00
2022-07-26T10:29:20.589Z,27.20
2022-07-26T10:32:10.053Z,27.50
2022-07-26T10:34:38.837Z,27.80
2022-07-26T10:37:22.618Z,28.10
2022-07-26T10:39:49.855Z,28.30
2022-07-26T10:42:16.604Z,28.30
2022-07-26T10:44:45.191Z,28.30
2022-07-26T10:47:15.787Z,28.20
2022-07-26T10:49:53.647Z,28.10
2022-07-26T10:52:25.342Z,28.10
2022-07-26T10:55:00.995Z,28.30
2022-07-26T10:57:47.617Z,28.50
2022-07-26T11:00:16.069Z,28.60
2022-07-26T11:02:44.152Z,28.70
2022-07-26T11:05:17.817Z,28.80
2022-07-26T11:07:50.619Z,28.80
2022-07-26T11:10:33.247Z,28.90
2022-07-26T11:13:02.733Z,28.90
2022-07-26T11:15:30.097Z,29.00
2022-07-26T11:18:06.915Z,29.10
2022-07-26T11:20:33.667Z,29.20
2022-07-26T11:23:00.546Z,29.40
2022-07-26T11:25:27.548Z,29.60
2022-07-26T11:28:07.202Z,29.60
2022-07-26T11:30:35.029Z,29.40
2022-07-26T11:33:01.831Z,29.20
2022-07-26T11:35:29.885Z,29.00
2022-07-26T11:38:11.245Z,28.70
2022-07-26T11:40:46.700Z,28.50
2022-07-26T11:43:13.689Z,28.30
2022-07-26T11:45:40.742Z,28.20
2022-07-26T11:48:07.693Z,28.10
2022-07-26T11:50:34.521Z,28.10
2022-07-26T11:53:01.282Z,28.00
2022-07-26T11:55:31.347Z,28.20
2022-07-26T11:58:05.816Z,28.40
2022-07-26T12:00:32.828Z,28.80
2022-07-26T12:02:59.612Z,29.10
2022-07-26T12:05:27.732Z,29.30
2022-07-26T12:08:00.498Z,29.50
2022-07-26T12:10:28.732Z,29.80
2022-07-26T12:13:11.989Z,30.00
2022-07-26T12:15:50.310Z,30.20
2022-07-26T12:18:30.712Z,30.30
2022-07-26T12:21:06.301Z,30.40
2022-07-26T12:24:00.194Z,30.50
2022-07-26T12:26:30.641Z,30.80
2022-07-26T12:28:59.691Z,31.00
2022-07-26T12:31:34.317Z,31.20
2022-07-26T12:34:01.446Z,31.40
2022-07-26T12:36:29.800Z,31.50
2022-07-26T12:38:58.705Z,31.70
2022-07-26T12:41:36.932Z,31.60
2022-07-26T12:44:06.615Z,31.40
2022-07-26T12:46:35.023Z,31.20
2022-07-26T12:49:03.103Z,30.90
2022-07-26T12:51:30.070Z,30.70
2022-07-26T12:53:56.791Z,30.70
2022-07-26T12:56:23.562Z,30.70
2022-07-26T12:58:50.501Z,30.60
2022-07-26T13:01:17.307Z,30.50
2022-07-26T13:03:44.362Z,30.40
2022-07-26T13:06:11.357Z,30.30
2022-07-26T13:08:38.347Z,30.20
2022-07-26T13:11:05.243Z,30.10
2022-07-26T13:13:31.986Z,30.10
2022-07-26T13:15:58.818Z,30.00
2022-07-26T13:18:25.556Z,29.90
2022-07-26T13:20:52.330Z,29.70
2022-07-26T13:23:21.577Z,29.60
2022-07-26T13:25:49.705Z,29.60
2022-07-26T13:28:17.414Z,29.60
2022-07-26T13:30:45.071Z,29.60
2022-07-26T13:33:12.260Z,29.60
2022-07-26T13:35:41.307Z,29.60
2022-07-26T13:38:09.034Z,29.60
2022-07-26T13:40:36.090Z,29.80
2022-07-26T13:43:03.349Z,29.90
2022-07-26T13:45:30.102Z,30.00
2022-07-26T13:47:58.912Z,30.10
2022-07-26T13:50:27.855Z,30.20
2022-07-26T13:52:56.191Z,30.40
2022-07-26T13:55:23.125Z,30.50
2022-07-26T13:57:56.883Z,30.60
2022-07-26T14:00:26.712Z,30.60
2022-07-26T14:02:55.070Z,30.60
2022-07-26T14:05:22.288Z,30.60
2022-07-26T14:07:49.397Z,30.60
2022-07-26T14:10:16.265Z,30.60
2022-07-26T14:12:43.059Z,30.50
2022-07-26T14:15:14.142Z,30.50
2022-07-26T14:17:45.503Z,30.40
2022-07-26T14:20:12.650Z,30.30
2022-07-26T14:22:39.588Z,30.20
2022-07-26T14:25:07.267Z,30.10
2022-07-26T14:27:34.071Z,30.00
2022-07-26T14:30:00.829Z,29.80
2022-07-26T14:32:27.900Z,29.70
2022-07-26T14:34:54.699Z,29.70
2022-07-26T14:37:44.324Z,29.70
2022-07-26T14:40:08.930Z,29.70
2022-07-26T14:42:35.663Z,29.60
2022-07-26T14:45:02.525Z,29.60
2022-07-26T14:47:29.297Z,29.60
2022-07-26T14:49:56.023Z,29.60
2022-07-26T14:52:22.903Z,29.60
2022-07-26T14:54:49.585Z,29.50
2022-07-26T14:57:16.379Z,29.50
2022-07-26T14:59:43.073Z,29.40
2022-07-26T15:02:11.847Z,29.30
2022-07-26T15:04:38.645Z,29.30
2022-07-26T15:07:05.392Z,29.20
2022-07-26T15:09:32.226Z,29.20
2022-07-26T15:11:59.290Z,29.20
2022-07-26T15:14:25.951Z,29.20
2022-07-26T15:16:52.835Z,29.20
2022-07-26T15:19:25.157Z,29.20
2022-07-26T15:21:54.997Z,29.20
2022-07-26T15:24:23.294Z,29.30
2022-07-26T15:26:51.196Z,29.20
2022-07-26T15:29:17.927Z,29.20
2022-07-26T15:31:44.819Z,29.10
2022-07-26T15:34:12.135Z,29.00
2022-07-26T15:36:39.138Z,29.00
2022-07-26T15:39:16.725Z,29.10
2022-07-26T15:41:45.137Z,29.10
2022-07-26T15:44:12.594Z,29.20
2022-07-26T15:46:39.995Z,29.20
2022-07-26T15:49:07.803Z,29.30
2022-07-26T15:51:34.594Z,29.30
2022-07-26T15:54:03.040Z,29.30
2022-07-26T15:56:29.993Z,29.20
2022-07-26T15:58:56.694Z,29.20
2022-07-26T16:01:23.532Z,29.10
2022-07-26T16:03:50.519Z,29.00
2022-07-26T16:06:17.327Z,29.00
2022-07-26T16:09:13.438Z,29.00
2022-07-26T16:11:31.530Z,28.90
2022-07-26T16:14:01.243Z,28.80
2022-07-26T16:16:30.108Z,28.70
2022-07-26T16:18:57.125Z,28.70
2022-07-26T16:21:24.492Z,28.70
2022-07-26T16:23:51.292Z,28.60
2022-07-26T16:26:18.767Z,28.60
2022-07-26T16:28:45.854Z,28.50
2022-07-26T16:31:12.801Z,28.40
2022-07-26T16:33:46.054Z,28.40
2022-07-26T16:36:14.129Z,28.40
2022-07-26T16:38:41.087Z,28.30
2022-07-26T16:41:07.984Z,28.30
2022-07-26T16:43:35.282Z,28.20
2022-07-26T16:46:02.142Z,28.20
2022-07-26T16:48:28.897Z,28.20
2022-07-26T16:50:55.741Z,28.20
2022-07-26T16:53:22.465Z,28.20
2022-07-26T16:55:51.715Z,28.20
2022-07-26T16:58:19.214Z,28.10
2022-07-26T17:00:47.235Z,28.00
2022-07-26T17:03:15.999Z,28.00
2022-07-26T17:05:44.512Z,27.90
2022-07-26T17:08:11.326Z,27.90
2022-07-26T17:10:38.455Z,27.90
2022-07-26T17:13:05.235Z,27.90
2022-07-26T17:15:31.930Z,27.90
2022-07-26T17:17:58.860Z,27.90
2022-07-26T17:20:25.739Z,27.80
2022-07-26T17:22:52.810Z,27.80
2022-07-26T17:25:19.750Z,27.80
2022-07-26T17:27:46.554Z,27.80
2022-07-26T17:30:13.839Z,27.70
2022-07-26T17:32:40.921Z,27.60
2022-07-26T17:35:08.138Z,27.60
2022-07-26T17:37:35.140Z,27.50
2022-07-26T17:40:03.642Z,27.40
2022-07-26T17:42:30.865Z,27.30
2022-07-26T17:44:57.763Z,27.10
2022-07-26T17:47:29.333Z,27.00
2022-07-26T17:50:14.172Z,26.90
2022-07-26T17:52:45.991Z,26.80
2022-07-26T17:55:12.773Z,26.60
2022-07-26T17:57:39.946Z,26.40
2022-07-26T18:00:07.557Z,26.30
2022-07-26T18:02:34.468Z,26.20
2022-07-26T18:05:03.073Z,26.10
2022-07-26T18:07:29.861Z,26.10
2022-07-26T18:09:56.603Z,26.00
2022-07-26T18:12:23.459Z,25.90
2022-07-26T18:14:50.196Z,25.80
2022-07-26T18:17:17.094Z,25.80
2022-07-26T18:19:43.815Z,25.80
2022-07-26T18:22:10.549Z,25.80
2022-07-26T18:24:37.273Z,25.80
2022-07-26T18:27:04.072Z,25.80
2022-07-26T18:29:30.823Z,25.80
2022-07-26T18:32:00.182Z,25.80
2022-07-26T18:34:27.159Z,25.70
2022-07-26T18:36:54.309Z,25.60
2022-07-26T18:39:21.286Z,25.50
2022-07-26T18:41:48.258Z,25.50
2022-07-26T18:44:15.128Z,25.40
2022-07-26T18:46:41.934Z,25.40
2022-07-26T18:49:09.224Z,25.40
2022-07-26T18:51:42.933Z,25.40
2022-07-26T18:54:10.042Z,25.40
2022-07-26T18:56:36.749Z,25.40
2022-07-26T18:59:03.905Z,25.40
2022-07-26T19:01:30.763Z,25.50
2022-07-26T19:03:57.647Z,25.40
2022-07-26T19:06:24.786Z,25.50
2022-07-26T19:08:51.504Z,25.50
2022-07-26T19:11:18.277Z,25.50
2022-07-26T19:13:44.967Z,25.40
2022-07-26T19:16:11.749Z,25.40
2022-07-26T19:18:38.472Z,25.40
2022-07-26T19:21:05.349Z,25.40
2022-07-26T19:23:32.079Z,25.40
2022-07-26T19:25:58.891Z,25.40
2022-07-26T19:28:25.768Z,25.40
2022-07-26T19:30:52.516Z,25.40
2022-07-26T19:33:19.392Z,25.40
2022-07-26T19:35:46.169Z,25.40
2022-07-26T19:38:13.441Z,25.40
2022-07-26T19:40:40.312Z,25.30
2022-07-26T19:43:07.113Z,25.30
2022-07-26T19:45:33.857Z,25.30
2022-07-26T19:48:00.694Z,25.20
2022-07-26T19:50:27.425Z,25.30
2022-07-26T19:52:54.226Z,25.20
2022-07-26T19:55:22.638Z,25.20
2022-07-26T19:57:49.523Z,25.20
2022-07-26T20:00:16.853Z,25.10
2022-07-26T20:02:43.837Z,25.10
2022-07-26T20:05:11.808Z,25.10
2022-07-26T20:07:39.062Z,25.10
2022-07-26T20:10:06.848Z,25.10
2022-07-26T20:12:34.762Z,25.00
2022-07-26T20:15:01.550Z,25.00
2022-07-26T20:17:33.390Z,25.00
2022-07-26T20:20:00.313Z,25.00
2022-07-26T20:22:27.057Z,25.00
2022-07-26T20:24:56.163Z,25.00
2022-07-26T20:27:24.134Z,24.90
2022-07-26T20:29:51.339Z,24.90
2022-07-26T20:32:18.581Z,24.90
2022-07-26T20:34:45.400Z,24.90
2022-07-26T20:37:12.181Z,24.90
2022-07-26T20:39:38.924Z,24.80
2022-07-26T20:42:06.674Z,24.70
2022-07-26T20:44:36.013Z,24.70
2022-07-26T20:47:06.260Z,24.60
2022-07-26T20:49:33.226Z,24.60
2022-07-26T20:52:00.132Z,24.60
2022-07-26T20:54:26.909Z,24.50
2022-07-26T20:56:53.588Z,24.50
2022-07-26T20:59:20.337Z,24.50
2022-07-26T21:01:47.136Z,24.50
2022-07-26T21:04:13.964Z,24.40
2022-07-26T21:06:40.663Z,24.30
2022-07-26T21:09:08.861Z,24.10
2022-07-26T21:11:36.292Z,24.10
2022-07-26T21:14:03.212Z,24.00
2022-07-26T21:16:30.116Z,24.00
2022-07-26T21:18:56.924Z,24.00
2022-07-26T21:21:23.768Z,24.00
2022-07-26T21:23:50.789Z,23.90
2022-07-26T21:26:17.603Z,23.90
2022-07-26T21:28:44.297Z,23.90
2022-07-26T21:31:11.041Z,23.90
2022-07-26T21:33:37.716Z,23.80
2022-07-26T21:36:04.685Z,23.80
2022-07-26T21:38:32.691Z,23.80
2022-07-26T21:40:59.635Z,23.80
2022-07-26T21:43:26.392Z,23.70
2022-07-26T21:45:53.233Z,23.70
2022-07-26T21:48:20.246Z,23.70
2022-07-26T21:50:46.948Z,23.70
2022-07-26T21:53:13.727Z,23.60
2022-07-26T21:55:41.074Z,23.60
2022-07-26T21:58:07.909Z,23.50
2022-07-26T22:00:36.590Z,23.50
2022-07-26T22:03:03.759Z,23.50
2022-07-26T22:05:39.515Z,23.50
2022-07-26T22:08:09.044Z,23.50
2022-07-26T22:10:44.146Z,23.40
2022-07-26T22:13:12.144Z,23.40
2022-07-26T22:15:38.824Z,23.40
2022-07-26T22:18:06.022Z,23.30
2022-07-26T22:20:34.270Z,23.40
2022-07-26T22:23:03.160Z,23.30
2022-07-26T22:25:31.230Z,23.30
2022-07-26T22:27:58.230Z,23.20
2022-07-26T22:30:25.409Z,23.20
2022-07-26T22:32:52.070Z,23.20
2022-07-26T22:35:18.960Z,23.10
2022-07-26T22:37:45.669Z,23.10
2022-07-26T22:40:12.946Z,23.10
2022-07-26T22:42:39.909Z,23.10
2022-07-26T22:45:09.935Z,23.00
2022-07-26T22:47:36.979Z,23.00
2022-07-26T22:50:06.565Z,23.00
2022-07-26T22:52:33.439Z,22.90
2022-07-26T22:55:00.153Z,22.90
2022-07-26T22:57:27.143Z,22.90
2022-07-26T22:59:57.769Z,22.90
2022-07-26T23:02:24.500Z,22.80
2022-07-26T23:04:51.233Z,22.80
2022-07-26T23:07:17.946Z,22.80
2022-07-26T23:09:45.630Z,22.80
2022-07-26T23:12:12.385Z,22.80
2022-07-26T23:14:39.140Z,22.80
2022-07-26T23:17:05.826Z,22.80
2022-07-26T23:19:32.484Z,22.70
2022-07-26T23:21:59.319Z,22.80
2022-07-26T23:24:26.007Z,22.70
2022-07-26T23:26:52.804Z,22.70
2022-07-26T23:29:19.519Z,22.70
2022-07-26T23:31:46.365Z,22.70
2022-07-26T23:34:13.193Z,22.60
2022-07-26T23:36:40.084Z,22.70
2022-07-26T23:39:06.812Z,22.60
2022-07-26T23:41:33.686Z,22.60
2022-07-26T23:44:00.348Z,22.60
2022-07-26T23:46:27.577Z,22.50
2022-07-26T23:48:55.389Z,22.50
2022-07-26T23:51:25.329Z,22.50
2022-07-26T23:53:52.914Z,22.40
2022-07-26T23:56:19.687Z,22.40
2022-07-26T23:58:46.407Z,22.40
